South Daytona, FL

9:13 PM EST on December 26, 2014 (GMT -0500)
Daytona Beach International | Change Station
CLOSE
Current Station
Airport
Location: Daytona Beach,
Elevation: 33 ft
Nearby Weather Stations

Elev 33 ft 29.18 °N, 81.06 °W | Updated 20 minutes ago

Overcast
Overcast
65 °F
Feels Like 65 °F
N
5
Wind Variable Wind from North

Today
High -- | Low -- °F
--% Chance of Precip.
Yesterday
High -- | Low -- °F
Precip. -- in
7:16 AM 5:33 PM
Waxing Crescent, 31% visible
Pressure 30.25 in
Visibility 10.0 miles
Clouds Mostly Cloudy 4500 ft
Overcast 6000 ft
Dew Point 61 °F
Humidity 87%
Rainfall 0.00 in
Snow Depth Not available.
UV 0 out of 12
Pollen 5.50 out of 12
Air Quality Not available.
Flu Activity Not available.
METAR KDAB 270153Z 35004KT 10SM BKN045 OVC060 18/16 A3025 RMK AO2 SLP243 T01830161

More Conditions Fewer Conditions

Pressure 30.25 in
Visibility 10.0 miles
Clouds Mostly Cloudy 4500 ft
Overcast 6000 ft
Dew Point 61 °F
Humidity 87%
Rainfall 0.00 in
Snow Depth Not available.
UV 0 out of 12
Pollen 5.50 out of 12
Air Quality Not available.
Flu Activity Not available.
METAR KDAB 270153Z 35004KT 10SM BKN045 OVC060 18/16 A3025 RMK AO2 SLP243 T01830161

More Conditions Fewer Conditions

Nowcast | as of 6:03 PM EST on December 26, 2014

Cloudy skies and mild temperatures will occur overnight with a few hit and miss spots of light rain. Measurable rainfall is not expected overnight. The moist environment will lead to development of fog in some areas by daybreak Saturday. Hazardous reductions in visibility are not expected. Additional details...including graphics are available online at: http://www.Srh.NOAA.Gov/mlb/blog.Php

×

10-Day Weather Forecast

Almanac

Astronomy

Dec. 26, 2014 Rise Set
Actual Time
Civil Twilight
Nautical Twilight
Astronomical Twilight
Moon
Length of Visible Light
Length of Day
Tomorrow will be .
, % of the Moon is Illuminated

Today's Extremes

State Highs State Lows

Community

WunderPhotos

Upload Photos

1,780,811 photos uploaded!

WunderBlogs® & News

Nearby

Air Quality

  Air Quality AQ Index Pollutant
Not available.

Snow Depth

Station Depth Elevation

Earthquake Activity

City Distance Mag. Time & Date
Minimum magnitude displayed is 2.5.

Coastal Water Temperatures

Place Temperature

Nearby Weather Stations